Parish, New York
Current Conditions -  °F | °C
As of 9:54 AM on Friday 19 Dec 2014 (Local Time) from KFZY Reporting Station
Overcast Overcast  
Wind Chill: 16°   Ceiling: 1700
Heat Index: 25°   Visibility: 9mi
Dew Point: 18°   Wind: 8mph
Humidity: 75%   Direction: 300°WNW
Pressure: 30.14"   Gusts: NA
Location:  43.41°N, 76.13°W
Report Text: KFZY 191454Z AUTO 30007KT 9SM OVC017 M04/M08 A3014 RMK AO2 SLP213 60000 T10391078 51018
Loading
Personal Weather Stations






























Interactive Weather Map New forecast layout! Learn more

10-Day Weather Forecast

Advertisements
Track Severe Weather on mobile